Time;durP1;ratioP1;P1;durP2;ratioP2;P2;SDS_P1;SDS_P2;PMS_P1;PMS_P2;Temp;Humidity;BMP_temperature;BMP_pressure;BME280_temperature;BME280_humidity;BME280_pressure;Samples;Min_cycle;Max_cycle;Signal;HPM_P1;HPM_P2
2021/05/27 00:01:52;;;;;;;11.98;7.18;;;14.60;92.00;;;;;;5018539;28;20033;-71
2021/05/27 00:04:18;;;;;;;12.90;7.20;;;14.50;91.60;;;;;;5018542;28;20026;-71
2021/05/27 00:06:43;;;;;;;10.73;7.63;;;14.40;92.30;;;;;;5018227;28;20299;-71
2021/05/27 00:09:09;;;;;;;12.25;7.20;;;14.30;92.60;;;;;;5018187;28;20030;-71
2021/05/27 00:11:35;;;;;;;14.68;7.32;;;14.20;92.80;;;;;;5018402;28;20022;-71
2021/05/27 00:14:00;;;;;;;12.45;7.10;;;14.10;93.20;;;;;;5018098;28;20030;-70
2021/05/27 00:16:26;;;;;;;14.07;7.18;;;14.00;93.70;;;;;;5017788;28;20036;-71
2021/05/27 00:18:52;;;;;;;12.00;7.38;;;14.00;93.80;;;;;;5018031;28;20030;-70
2021/05/27 00:21:21;;;;;;;11.13;7.88;;;14.10;94.00;;;;;;5017845;28;20064;-70
2021/05/27 00:23:47;;;;;;;11.55;7.10;;;14.10;94.30;;;;;;5017940;28;20434;-71
2021/05/27 00:26:13;;;;;;;13.00;7.70;;;14.10;93.70;;;;;;5018096;28;20353;-70
2021/05/27 00:28:39;;;;;;;14.13;8.60;;;14.00;94.30;;;;;;5018127;28;20030;-71
2021/05/27 00:31:05;;;;;;;12.63;7.45;;;14.10;94.70;;;;;;5018043;28;20026;-71
2021/05/27 00:33:31;;;;;;;14.65;8.23;;;14.20;94.00;;;;;;5018020;28;20056;-71
2021/05/27 00:35:57;;;;;;;9.32;7.32;;;14.20;94.00;;;;;;5017643;28;20364;-70
2021/05/27 00:38:23;;;;;;;11.75;6.75;;;14.20;94.10;;;;;;5017999;28;20026;-71
2021/05/27 00:40:48;;;;;;;12.60;7.07;;;14.30;93.80;;;;;;5017528;28;20029;-71
2021/05/27 00:43:14;;;;;;;13.50;6.53;;;14.20;93.60;;;;;;5017912;28;20029;-71
2021/05/27 00:45:40;;;;;;;8.95;7.00;;;14.10;93.70;;;;;;5016694;28;20065;-70
2021/05/27 00:48:06;;;;;;;9.95;6.75;;;14.10;93.80;;;;;;5017806;28;20026;-70
2021/05/27 00:50:31;;;;;;;9.55;6.90;;;14.00;93.80;;;;;;5017462;28;20314;-71
2021/05/27 00:52:58;;;;;;;10.90;6.95;;;14.00;94.00;;;;;;5017750;28;20096;-70
2021/05/27 00:55:30;;;;;;;11.20;7.38;;;13.80;94.30;;;;;;5017620;28;20076;-71
2021/05/27 00:57:57;;;;;;;10.20;7.18;;;13.60;94.50;;;;;;5017319;28;20190;-71
2021/05/27 01:00:25;;;;;;;10.13;6.63;;;13.60;94.80;;;;;;5017637;28;20022;-71
2021/05/27 01:02:51;;;;;;;9.90;6.75;;;13.70;95.10;;;;;;5017557;28;20322;-71
2021/05/27 01:05:17;;;;;;;11.35;6.95;;;13.60;94.80;;;;;;5017424;28;20025;-71
2021/05/27 01:07:44;;;;;;;12.70;7.03;;;13.60;94.50;;;;;;5017463;28;20033;-71
2021/05/27 01:10:12;;;;;;;14.98;7.82;;;13.60;94.70;;;;;;5017127;28;20065;-71
2021/05/27 01:12:38;;;;;;;10.80;8.73;;;13.60;94.80;;;;;;5017429;28;20052;-71
2021/05/27 01:17:50;;;;;;;13.27;8.32;;;13.70;93.50;;;;;;5017023;28;20347;-71
2021/05/27 01:20:15;;;;;;;9.90;7.50;;;13.70;93.30;;;;;;5016974;28;20030;-70
2021/05/27 01:22:41;;;;;;;12.40;8.30;;;13.70;93.40;;;;;;5016938;28;20023;-70
2021/05/27 01:25:08;;;;;;;10.18;7.90;;;13.70;93.60;;;;;;5017221;28;20026;-71
2021/05/27 01:27:35;;;;;;;14.07;9.32;;;13.70;93.70;;;;;;5016884;28;20057;-70
2021/05/27 01:30:03;;;;;;;13.70;8.38;;;13.80;93.40;;;;;;5016924;28;20037;-70
2021/05/27 01:32:28;;;;;;;14.90;9.02;;;13.90;93.20;;;;;;5017120;28;20022;-71
2021/05/27 01:34:54;;;;;;;17.05;9.32;;;13.90;93.30;;;;;;5017098;28;20468;-70
2021/05/27 01:37:20;;;;;;;10.98;8.73;;;14.00;92.80;;;;;;5016880;28;20033;-70
2021/05/27 01:39:46;;;;;;;13.20;8.38;;;14.10;91.90;;;;;;5017154;28;20026;-71
2021/05/27 01:42:12;;;;;;;14.30;9.43;;;14.20;90.60;;;;;;5017009;28;20029;-71
2021/05/27 01:44:39;;;;;;;13.55;8.00;;;14.30;90.00;;;;;;5016829;28;20117;-71
2021/05/27 01:47:05;;;;;;;12.00;8.32;;;14.30;89.90;;;;;;5016707;28;20433;-71
2021/05/27 01:49:31;;;;;;;11.25;7.53;;;14.30;89.40;;;;;;5016781;28;20026;-71
2021/05/27 01:51:57;;;;;;;11.32;7.93;;;14.40;89.40;;;;;;5016983;28;20393;-71
2021/05/27 01:54:22;;;;;;;9.32;7.32;;;14.50;89.50;;;;;;5016672;28;20030;-71
2021/05/27 01:56:48;;;;;;;11.00;8.82;;;14.50;89.20;;;;;;5018433;28;20034;-71
2021/05/27 01:59:14;;;;;;;11.30;8.07;;;14.40;88.50;;;;;;5020910;28;20445;-70
2021/05/27 02:01:40;;;;;;;11.52;7.13;;;14.40;88.10;;;;;;5020421;28;20322;-71
2021/05/27 02:04:05;;;;;;;11.25;6.40;;;14.40;88.10;;;;;;5020473;28;20105;-71
2021/05/27 02:06:31;;;;;;;9.98;6.80;;;14.40;86.90;;;;;;5020787;28;20030;-71
2021/05/27 02:09:12;;;;;;;8.45;6.78;;;14.30;87.10;;;;;;5021094;28;20025;-71
2021/05/27 02:11:42;;;;;;;11.05;6.72;;;14.30;86.60;;;;;;5020400;28;20029;-70
2021/05/27 02:14:09;;;;;;;9.23;6.55;;;14.40;86.40;;;;;;5020285;28;20030;-71
2021/05/27 02:16:36;;;;;;;12.32;6.10;;;14.40;85.80;;;;;;5020272;28;20030;-71
2021/05/27 02:19:03;;;;;;;12.13;6.50;;;14.40;85.30;;;;;;5020293;28;20045;-71
2021/05/27 02:21:29;;;;;;;9.10;5.47;;;14.40;84.80;;;;;;5020143;28;20525;-70
2021/05/27 02:23:59;;;;;;;8.85;5.25;;;14.40;85.40;;;;;;5020228;28;20026;-70
2021/05/27 02:26:28;;;;;;;11.52;4.57;;;14.40;85.90;;;;;;5020380;28;20022;-71
2021/05/27 02:28:55;;;;;;;9.35;5.03;;;14.20;87.10;;;;;;5020347;28;20028;-71
2021/05/27 02:31:22;;;;;;;11.07;6.75;;;14.10;87.00;;;;;;5020295;28;20030;-71
2021/05/27 02:33:49;;;;;;;8.55;5.25;;;14.00;88.90;;;;;;5020299;28;20318;-70
2021/05/27 02:36:15;;;;;;;9.63;4.78;;;14.00;87.80;;;;;;5019892;28;20029;-70
2021/05/27 02:38:41;;;;;;;11.00;4.63;;;14.00;87.90;;;;;;5019893;28;20026;-71
2021/05/27 02:41:08;;;;;;;9.30;4.60;;;13.80;88.30;;;;;;5019994;28;20053;-71
2021/05/27 02:43:35;;;;;;;7.25;4.45;;;13.70;88.70;;;;;;5019868;28;20322;-70
2021/05/27 02:46:02;;;;;;;8.85;4.43;;;13.60;89.20;;;;;;5020086;28;20034;-70
2021/05/27 02:48:29;;;;;;;6.20;4.68;;;13.40;89.80;;;;;;5019974;28;20317;-70
2021/05/27 02:50:56;;;;;;;11.20;5.07;;;13.30;90.20;;;;;;5019928;28;20026;-70
2021/05/27 02:53:23;;;;;;;10.15;4.80;;;13.20;90.80;;;;;;5019671;28;20025;-70
2021/05/27 02:55:50;;;;;;;11.88;6.07;;;13.10;91.40;;;;;;5019801;28;20064;-71
2021/05/27 02:58:16;;;;;;;13.68;6.03;;;13.10;91.80;;;;;;5019834;28;20030;-70
2021/05/27 03:00:42;;;;;;;10.63;5.05;;;13.10;91.70;;;;;;5019353;28;20308;-71
2021/05/27 03:03:07;;;;;;;10.70;5.03;;;13.10;91.50;;;;;;5019465;28;20018;-70
2021/05/27 03:05:33;;;;;;;6.90;5.10;;;13.20;91.20;;;;;;5019349;28;20026;-70
2021/05/27 03:07:59;;;;;;;11.23;4.47;;;13.10;91.20;;;;;;5018630;28;20030;-70
2021/05/27 03:10:25;;;;;;;15.20;5.70;;;13.10;91.20;;;;;;5019554;28;20033;-70
2021/05/27 03:12:50;;;;;;;7.30;5.28;;;13.10;91.40;;;;;;5019284;28;20033;-70
2021/05/27 03:15:17;;;;;;;8.75;4.90;;;13.10;91.50;;;;;;5019404;28;20041;-70
2021/05/27 03:17:42;;;;;;;8.68;5.65;;;13.20;91.40;;;;;;5018819;28;20137;-71
2021/05/27 03:20:09;;;;;;;8.75;6.15;;;13.10;91.60;;;;;;5019118;28;20111;-71
2021/05/27 03:22:35;;;;;;;8.77;6.07;;;13.20;92.30;;;;;;5019300;28;20022;-71
2021/05/27 03:25:00;;;;;;;8.05;6.00;;;13.20;92.70;;;;;;5018970;28;20369;-70
2021/05/27 03:27:26;;;;;;;13.27;7.10;;;13.30;92.70;;;;;;5018927;28;20053;-71
2021/05/27 03:29:52;;;;;;;13.95;7.80;;;13.30;93.10;;;;;;5018947;28;20053;-71
2021/05/27 03:32:18;;;;;;;12.23;6.47;;;13.40;93.40;;;;;;5018915;28;20026;-71
2021/05/27 03:34:43;;;;;;;17.40;7.20;;;13.40;92.90;;;;;;5018820;28;20036;-71
2021/05/27 03:37:09;;;;;;;9.73;6.28;;;13.40;93.00;;;;;;5019104;28;20025;-71
2021/05/27 03:39:35;;;;;;;9.43;6.65;;;13.40;92.70;;;;;;5034283;28;20030;-70
2021/05/27 03:42:00;;;;;;;7.25;5.10;;;13.20;93.00;;;;;;5018920;28;20026;-71
2021/05/27 03:44:26;;;;;;;9.45;4.85;;;13.10;92.90;;;;;;5018937;28;20022;-70
2021/05/27 03:46:52;;;;;;;8.73;5.13;;;13.00;92.60;;;;;;5018569;28;20037;-70
2021/05/27 03:49:18;;;;;;;8.32;4.93;;;13.00;92.90;;;;;;5018891;28;20022;-71
2021/05/27 03:51:44;;;;;;;9.23;5.22;;;13.00;92.90;;;;;;5018491;28;20075;-71
2021/05/27 03:54:09;;;;;;;11.80;5.55;;;13.00;92.90;;;;;;5018423;28;20026;-71
2021/05/27 03:56:35;;;;;;;9.48;5.65;;;13.00;92.90;;;;;;5018722;28;20080;-71
2021/05/27 04:01:45;;;;;;;14.20;7.75;;;13.00;93.50;;;;;;5018548;28;20127;-71
2021/05/27 04:07:11;;;;;;;7.88;5.68;;;13.00;93.50;;;;;;5018483;28;20033;-71
2021/05/27 04:09:42;;;;;;;8.70;4.93;;;13.00;93.40;;;;;;5018524;28;20116;-71
2021/05/27 04:17:40;;;;;;;7.75;4.80;;;13.00;93.50;;;;;;5018127;28;20489;-70
2021/05/27 04:20:06;;;;;;;10.10;4.60;;;13.10;93.40;;;;;;5017308;28;20025;-71
2021/05/27 04:22:32;;;;;;;6.78;4.55;;;13.10;93.40;;;;;;5017897;28;20065;-71
2021/05/27 04:24:58;;;;;;;7.90;4.88;;;13.20;93.40;;;;;;5018170;28;20056;-70
2021/05/27 04:27:24;;;;;;;6.57;4.25;;;13.20;93.20;;;;;;5017887;28;20057;-71
2021/05/27 04:29:53;;;;;;;8.82;4.20;;;13.30;93.20;;;;;;5018147;28;20025;-71
2021/05/27 04:35:03;;;;;;;10.63;4.95;;;13.40;93.20;;;;;;5017758;28;20036;-70
2021/05/27 04:37:28;;;;;;;13.88;6.32;;;13.50;93.00;;;;;;5017979;28;20030;-70
2021/05/27 04:39:54;;;;;;;13.65;6.30;;;13.60;93.00;;;;;;5017991;28;20109;-70
2021/05/27 04:42:20;;;;;;;9.23;5.03;;;13.70;93.00;;;;;;5017517;28;20303;-70
2021/05/27 04:44:45;;;;;;;10.27;4.07;;;13.80;93.10;;;;;;5017485;28;20033;-70
2021/05/27 04:47:11;;;;;;;9.15;5.10;;;13.90;92.80;;;;;;5017856;28;20046;-70
2021/05/27 04:49:37;;;;;;;11.98;7.45;;;14.00;92.80;;;;;;5017804;28;20075;-70
2021/05/27 04:52:03;;;;;;;10.63;6.63;;;14.10;92.50;;;;;;5017435;28;20441;-70
2021/05/27 04:54:28;;;;;;;9.88;6.50;;;14.20;92.50;;;;;;5017366;28;20112;-70
2021/05/27 04:56:54;;;;;;;10.68;6.45;;;14.30;92.30;;;;;;5017669;28;20037;-70
2021/05/27 04:59:20;;;;;;;10.68;6.10;;;14.40;92.20;;;;;;5017317;28;20030;-70
2021/05/27 05:01:45;;;;;;;9.60;6.22;;;14.50;92.30;;;;;;5017531;28;20124;-70
2021/05/27 05:04:11;;;;;;;16.23;8.00;;;14.60;91.90;;;;;;5017249;28;20288;-71
2021/05/27 05:06:38;;;;;;;13.65;7.57;;;14.80;91.40;;;;;;5017515;28;20030;-70
2021/05/27 05:09:03;;;;;;;9.77;6.35;;;14.90;90.10;;;;;;5017220;28;20114;-70
2021/05/27 05:11:29;;;;;;;11.38;6.05;;;14.90;90.10;;;;;;5017172;28;20061;-71
2021/05/27 05:13:55;;;;;;;9.18;5.53;;;15.00;90.00;;;;;;5017206;28;20034;-71
2021/05/27 05:16:21;;;;;;;7.60;5.57;;;15.10;89.60;;;;;;5017020;28;20038;-71
2021/05/27 05:18:47;;;;;;;7.55;6.00;;;15.10;90.10;;;;;;5016911;28;20056;-71
2021/05/27 05:21:12;;;;;;;11.65;6.28;;;15.30;88.40;;;;;;5017263;28;20040;-71
2021/05/27 05:23:39;;;;;;;9.57;5.15;;;15.40;88.40;;;;;;5017375;28;20049;-71
2021/05/27 05:26:05;;;;;;;8.25;5.00;;;15.40;88.20;;;;;;5016893;28;20417;-71
2021/05/27 05:28:31;;;;;;;12.07;4.75;;;15.60;87.10;;;;;;5017266;28;20029;-71
2021/05/27 05:30:56;;;;;;;10.18;5.93;;;15.70;86.90;;;;;;5016859;28;20184;-71
2021/05/27 05:33:22;;;;;;;9.32;5.25;;;15.80;87.50;;;;;;5017197;28;20034;-71
2021/05/27 05:35:48;;;;;;;10.23;6.25;;;15.80;87.30;;;;;;5017158;28;20113;-71
2021/05/27 05:38:14;;;;;;;8.70;5.20;;;15.70;85.80;;;;;;5016891;28;20488;-71
2021/05/27 05:40:39;;;;;;;9.18;5.43;;;15.60;85.10;;;;;;5017029;28;20033;-71
2021/05/27 05:43:05;;;;;;;9.63;4.70;;;15.50;83.90;;;;;;5016838;28;20045;-71
2021/05/27 05:45:32;;;;;;;7.22;4.75;;;15.60;84.20;;;;;;5017045;28;20036;-71
2021/05/27 05:47:59;;;;;;;5.47;4.28;;;15.90;83.70;;;;;;5017020;28;20022;-71
2021/05/27 05:53:11;;;;;;;10.40;5.50;;;16.70;80.90;;;;;;5017019;28;20033;-71
2021/05/27 05:55:38;;;;;;;10.20;4.47;;;16.90;79.60;;;;;;5016937;28;20329;-71
2021/05/27 05:58:04;;;;;;;7.72;4.68;;;17.20;79.40;;;;;;5016642;28;20422;-71
2021/05/27 06:00:31;;;;;;;5.95;3.88;;;17.60;77.30;;;;;;5016963;28;20029;-71
2021/05/27 06:02:57;;;;;;;7.28;3.58;;;17.90;77.20;;;;;;5016571;28;20030;-71
2021/05/27 06:05:22;;;;;;;7.65;3.28;;;18.00;77.60;;;;;;5016835;28;20026;-71
2021/05/27 06:07:48;;;;;;;10.05;4.78;;;18.30;77.70;;;;;;5016898;28;20032;-71
2021/05/27 06:10:14;;;;;;;5.70;3.58;;;18.70;76.20;;;;;;5016574;28;20424;-71
2021/05/27 06:12:39;;;;;;;11.30;4.50;;;19.20;74.90;;;;;;5016550;28;20030;-71
2021/05/27 06:15:09;;;;;;;9.73;3.67;;;19.60;73.40;;;;;;5016832;28;20034;-71
2021/05/27 06:17:35;;;;;;;11.40;5.45;;;20.10;72.10;;;;;;5016340;28;20152;-71
2021/05/27 06:20:02;;;;;;;10.60;6.22;;;20.50;71.90;;;;;;5016789;28;20382;-71
2021/05/27 06:22:28;;;;;;;8.75;5.00;;;20.60;71.90;;;;;;5016314;28;20034;-71
2021/05/27 06:24:54;;;;;;;10.57;3.53;;;20.60;73.00;;;;;;5016404;28;20112;-71
2021/05/27 06:27:19;;;;;;;6.20;2.85;;;20.60;72.80;;;;;;5016424;28;20030;-71
2021/05/27 06:29:45;;;;;;;4.47;2.70;;;20.90;71.80;;;;;;5016726;28;20033;-71
2021/05/27 06:32:11;;;;;;;6.32;2.83;;;21.30;70.10;;;;;;5016358;28;20080;-71
2021/05/27 06:34:37;;;;;;;5.60;2.58;;;21.20;70.70;;;;;;5016295;28;20034;-71
2021/05/27 06:37:02;;;;;;;7.25;2.60;;;21.70;69.20;;;;;;5016318;28;20026;-71
2021/05/27 06:39:28;;;;;;;9.23;3.00;;;21.60;70.20;;;;;;5016592;28;20026;-71
2021/05/27 06:41:55;;;;;;;6.53;2.80;;;21.60;69.70;;;;;;5016190;28;20045;-71
2021/05/27 06:44:23;;;;;;;5.25;2.67;;;21.60;70.30;;;;;;5018354;28;20026;-71
2021/05/27 06:46:48;;;;;;;7.13;2.60;;;21.50;71.40;;;;;;5020058;28;20101;-71
2021/05/27 06:49:14;;;;;;;10.05;2.72;;;20.90;72.30;;;;;;5020039;28;20046;-71
2021/05/27 06:51:43;;;;;;;6.85;3.03;;;20.40;74.00;;;;;;5019988;28;20034;-71
2021/05/27 06:54:08;;;;;;;7.53;2.47;;;20.30;73.80;;;;;;5019921;28;20108;-71
2021/05/27 06:56:34;;;;;;;4.53;2.85;;;20.20;74.30;;;;;;5019895;28;20423;-71
2021/05/27 06:59:00;;;;;;;8.18;3.05;;;20.20;76.50;;;;;;5019552;28;20034;-71
2021/05/27 07:01:26;;;;;;;7.35;3.03;;;20.70;74.00;;;;;;5019716;28;20037;-71
2021/05/27 07:03:53;;;;;;;9.50;3.28;;;21.20;71.20;;;;;;5019856;28;20379;-71
2021/05/27 07:06:19;;;;;;;11.10;3.40;;;21.40;69.30;;;;;;5019609;28;20106;-71
2021/05/27 07:08:45;;;;;;;5.57;2.40;;;21.20;71.90;;;;;;5019717;28;20101;-71
2021/05/27 07:11:10;;;;;;;7.03;2.65;;;20.90;71.00;;;;;;5019323;28;20390;-71
2021/05/27 07:13:36;;;;;;;5.07;2.92;;;20.80;71.50;;;;;;5019657;28;20067;-71
2021/05/27 07:16:02;;;;;;;6.35;2.70;;;20.90;69.90;;;;;;5019608;28;20026;-71
2021/05/27 07:18:28;;;;;;;5.68;2.72;;;21.10;71.20;;;;;;5019130;28;20065;-71
2021/05/27 07:20:54;;;;;;;3.67;2.60;;;21.30;70.60;;;;;;5019079;28;20025;-71
2021/05/27 07:23:19;;;;;;;5.93;2.85;;;21.50;70.30;;;;;;5019465;28;20032;-71
2021/05/27 07:25:45;;;;;;;7.65;3.65;;;21.80;68.40;;;;;;5019282;28;20318;-71
2021/05/27 07:28:11;;;;;;;5.20;2.70;;;22.10;68.30;;;;;;5019340;28;20037;-71
2021/05/27 07:30:37;;;;;;;4.70;2.60;;;22.50;68.60;;;;;;5018989;28;20326;-71
2021/05/27 07:33:03;;;;;;;6.53;3.35;;;22.80;67.50;;;;;;5018931;28;20036;-71
2021/05/27 07:35:29;;;;;;;7.30;3.10;;;22.90;67.60;;;;;;5019158;28;20144;-71
2021/05/27 07:37:56;;;;;;;5.78;2.17;;;23.20;67.60;;;;;;5019167;28;20080;-71
2021/05/27 07:40:23;;;;;;;10.43;3.42;;;23.30;70.60;;;;;;5019089;28;20104;-71
2021/05/27 07:42:49;;;;;;;5.05;3.40;;;23.60;66.50;;;;;;5018664;28;20453;-71
2021/05/27 07:45:16;;;;;;;6.55;3.33;;;23.60;65.70;;;;;;5019004;28;20118;-71
2021/05/27 07:47:42;;;;;;;5.95;3.03;;;23.70;66.60;;;;;;5018655;28;20084;-71
2021/05/27 07:50:09;;;;;;;6.53;3.00;;;23.70;66.60;;;;;;5018555;28;20029;-71
2021/05/27 07:52:35;;;;;;;10.02;3.58;;;23.90;67.20;;;;;;5018560;28;20029;-71
2021/05/27 07:55:01;;;;;;;7.60;3.00;;;24.20;65.30;;;;;;5018512;28;20025;-71
2021/05/27 07:57:27;;;;;;;10.75;3.08;;;24.40;65.20;;;;;;5018385;28;20065;-71
2021/05/27 07:59:53;;;;;;;7.53;2.90;;;24.60;62.30;;;;;;5018722;28;20056;-71
2021/05/27 08:02:19;;;;;;;8.32;3.67;;;24.30;64.30;;;;;;5018606;28;20117;-71
2021/05/27 08:04:45;;;;;;;8.73;4.32;;;23.70;66.60;;;;;;5018237;28;20378;-71
2021/05/27 08:07:11;;;;;;;11.15;4.00;;;23.10;67.90;;;;;;5018276;28;20053;-71
2021/05/27 08:09:38;;;;;;;12.48;5.45;;;22.90;68.00;;;;;;5018492;28;20026;-71
2021/05/27 08:12:05;;;;;;;8.23;3.70;;;23.20;69.90;;;;;;5018119;28;20060;-71
2021/05/27 08:14:31;;;;;;;7.53;3.40;;;23.70;65.60;;;;;;5018208;28;20030;-71
2021/05/27 08:16:57;;;;;;;7.45;3.58;;;23.30;68.00;;;;;;5018209;28;20030;-71
2021/05/27 08:19:23;;;;;;;8.07;3.45;;;23.00;66.80;;;;;;5018362;28;20038;-71
2021/05/27 08:21:49;;;;;;;7.78;3.80;;;22.80;70.40;;;;;;5018242;28;20141;-71
2021/05/27 08:24:15;;;;;;;4.97;3.10;;;22.90;67.30;;;;;;5017933;28;20036;-71
2021/05/27 08:26:41;;;;;;;7.97;3.15;;;23.10;65.90;;;;;;5017933;28;20022;-71
2021/05/27 08:29:06;;;;;;;7.10;3.50;;;23.50;67.10;;;;;;5018180;28;20045;-71
2021/05/27 08:31:32;;;;;;;9.02;3.67;;;23.60;66.90;;;;;;5017821;28;20088;-71
2021/05/27 08:33:58;;;;;;;8.45;4.05;;;23.80;63.70;;;;;;5018119;28;20030;-71
2021/05/27 08:36:24;;;;;;;9.15;4.10;;;24.50;62.40;;;;;;5017722;28;20476;-71
2021/05/27 08:38:50;;;;;;;9.35;4.18;;;24.60;63.10;;;;;;5018040;28;20046;-71
2021/05/27 08:41:19;;;;;;;8.60;4.30;;;24.80;62.70;;;;;;5017833;28;20116;-71
2021/05/27 08:43:50;;;;;;;10.35;4.30;;;24.50;64.00;;;;;;5017674;28;20406;-71
2021/05/27 08:46:17;;;;;;;10.23;5.05;;;24.10;64.40;;;;;;5017434;28;20057;-71
2021/05/27 08:48:44;;;;;;;8.50;4.72;;;23.70;65.90;;;;;;5017510;28;20037;-71
2021/05/27 08:51:12;;;;;;;11.35;5.35;;;23.40;68.50;;;;;;5017781;28;20029;-71
2021/05/27 08:53:38;;;;;;;8.73;4.43;;;22.80;67.60;;;;;;5017511;28;20449;-71
2021/05/27 08:56:04;;;;;;;10.52;4.28;;;23.00;69.70;;;;;;5017345;28;20462;-71
2021/05/27 08:58:30;;;;;;;7.72;3.90;;;22.80;66.80;;;;;;5017670;28;20029;-71
2021/05/27 09:00:56;;;;;;;5.50;3.90;;;22.70;68.60;;;;;;5017531;28;20029;-71
2021/05/27 09:03:23;;;;;;;9.60;4.25;;;22.80;66.90;;;;;;5017659;28;20422;-71
2021/05/27 09:05:59;;;;;;;10.93;4.28;;;22.50;68.50;;;;;;5017057;28;20026;-71
2021/05/27 09:08:30;;;;;;;7.95;4.10;;;22.00;71.10;;;;;;5017626;28;20034;-71
2021/05/27 09:11:13;;;;;;;14.15;4.28;;;22.40;69.80;;;;;;5017538;28;20022;-71
2021/05/27 09:13:58;;;;;;;7.95;4.65;;;23.20;68.90;;;;;;5017230;28;20026;-71
2021/05/27 09:16:25;;;;;;;7.65;4.22;;;23.20;65.80;;;;;;5017118;28;20029;-71
2021/05/27 09:18:52;;;;;;;9.85;4.32;;;22.50;66.60;;;;;;5016857;28;20038;-71
2021/05/27 09:21:42;;;;;;;7.32;4.47;;;22.10;70.00;;;;;;5016956;28;20417;-71
2021/05/27 09:24:08;;;;;;;7.18;4.22;;;21.90;68.70;;;;;;5016991;28;20032;-71
2021/05/27 09:26:52;;;;;;;10.38;4.85;;;22.30;74.20;;;;;;5016986;28;20480;-71
2021/05/27 09:29:18;;;;;;;9.10;4.50;;;23.20;67.50;;;;;;5016914;28;20037;-71
2021/05/27 09:31:57;;;;;;;6.25;3.28;;;24.10;65.10;;;;;;5016912;28;20026;-71
2021/05/27 09:34:51;;;;;;;8.15;3.90;;;24.10;69.00;;;;;;5017207;28;20036;-71
2021/05/27 09:37:19;;;;;;;7.13;4.45;;;23.60;68.00;;;;;;5016870;28;20034;-71
2021/05/27 09:39:47;;;;;;;6.95;4.70;;;23.00;66.90;;;;;;5016830;28;20025;-71
2021/05/27 09:42:13;;;;;;;8.95;4.45;;;22.80;68.00;;;;;;5016746;28;20034;-71
2021/05/27 09:44:39;;;;;;;7.15;3.85;;;23.40;67.90;;;;;;5016695;28;20126;-71
2021/05/27 09:47:05;;;;;;;8.40;4.57;;;23.20;69.30;;;;;;5017089;28;20050;-71
2021/05/27 09:49:33;;;;;;;8.18;4.60;;;22.80;68.30;;;;;;5016766;28;20410;-71
2021/05/27 09:52:16;;;;;;;10.23;5.05;;;22.30;71.00;;;;;;5016702;28;20022;-71
2021/05/27 09:54:55;;;;;;;10.25;4.80;;;22.70;71.80;;;;;;5016668;28;20026;-71
2021/05/27 09:57:26;;;;;;;9.82;5.15;;;23.80;68.30;;;;;;5016973;28;20090;-71
2021/05/27 09:59:52;;;;;;;11.52;5.35;;;24.20;63.60;;;;;;5017034;28;20295;-71
2021/05/27 10:02:20;;;;;;;11.77;5.22;;;24.50;63.70;;;;;;5016841;28;20418;-71
2021/05/27 10:04:57;;;;;;;10.73;4.78;;;24.90;63.30;;;;;;5016555;28;20026;-71
2021/05/27 10:07:53;;;;;;;7.97;4.85;;;25.00;66.60;;;;;;5016899;28;20364;-72
2021/05/27 10:10:21;;;;;;;7.53;4.20;;;25.60;60.70;;;;;;5012287;28;20061;-71
2021/05/27 10:12:51;;;;;;;7.55;4.32;;;26.00;61.90;;;;;;5016562;28;20025;-71
2021/05/27 10:15:22;;;;;;;8.95;4.38;;;26.00;61.10;;;;;;5015532;28;20061;-71
2021/05/27 10:17:50;;;;;;;8.30;4.47;;;26.20;62.60;;;;;;5029391;28;20453;-71
2021/05/27 10:20:19;;;;;;;9.23;4.50;;;26.40;59.80;;;;;;5021741;28;20046;-71
2021/05/27 10:22:45;;;;;;;8.38;4.18;;;26.70;59.10;;;;;;5020531;28;20037;-71
2021/05/27 10:25:14;;;;;;;8.85;4.65;;;26.30;58.60;;;;;;5020096;28;20338;-71
2021/05/27 10:27:46;;;;;;;8.00;3.88;;;25.80;60.40;;;;;;5020427;28;20045;-71
2021/05/27 10:30:13;;;;;;;8.93;4.65;;;25.40;62.60;;;;;;5020059;28;20022;-71
2021/05/27 10:32:46;;;;;;;8.98;4.57;;;25.00;61.30;;;;;;5020041;28;20029;-71
2021/05/27 10:35:12;;;;;;;12.43;4.80;;;24.20;63.10;;;;;;5019959;28;20030;-71
2021/05/27 10:37:38;;;;;;;7.32;4.97;;;23.40;65.30;;;;;;5019976;28;20029;-71
2021/05/27 10:40:20;;;;;;;8.23;5.05;;;22.70;64.70;;;;;;5020213;28;20030;-71
2021/05/27 10:43:13;;;;;;;8.10;4.72;;;22.30;66.40;;;;;;5020116;28;20041;-71
2021/05/27 10:45:58;;;;;;;10.85;5.80;;;22.10;66.70;;;;;;5020239;28;20117;-71
2021/05/27 10:48:28;;;;;;;13.38;5.75;;;22.10;67.20;;;;;;5026150;28;20033;-71
2021/05/27 10:53:40;;;;;;;7.72;5.18;;;21.60;66.70;;;;;;5039587;28;20022;-71
2021/05/27 10:56:11;;;;;;;10.07;4.80;;;21.40;71.10;;;;;;5039456;28;20337;-71
2021/05/27 10:58:46;;;;;;;9.70;5.30;;;21.60;71.60;;;;;;5039700;28;20120;-71
2021/05/27 11:01:13;;;;;;;10.90;5.13;;;22.10;67.00;;;;;;5039227;28;20039;-71
2021/05/27 11:04:01;;;;;;;12.73;5.57;;;22.60;68.30;;;;;;5039627;28;20359;-71
2021/05/27 11:06:35;;;;;;;10.00;5.00;;;23.40;65.90;;;;;;5039175;28;20108;-70
2021/05/27 11:11:42;;;;;;;11.77;5.15;;;23.40;63.80;;;;;;5039512;28;20121;-71
2021/05/27 11:14:40;;;;;;;10.57;4.55;;;23.40;68.10;;;;;;5038952;28;20034;-70
2021/05/27 11:17:12;;;;;;;13.35;4.65;;;23.60;63.70;;;;;;5039124;28;20322;-70
2021/05/27 11:22:36;;;;;;;12.10;4.32;;;23.80;69.90;;;;;;5039214;28;20071;-70
2021/05/27 11:25:08;;;;;;;13.77;4.95;;;23.70;65.70;;;;;;5039154;28;20032;-70
2021/05/27 11:27:35;;;;;;;8.82;4.28;;;23.40;65.20;;;;;;5039100;28;20041;-70
2021/05/27 11:30:36;;;;;;;10.05;5.22;;;22.90;68.00;;;;;;5038536;28;20100;-70
2021/05/27 11:33:05;;;;;;;8.10;4.63;;;22.40;65.80;;;;;;5039066;28;20037;-70
2021/05/27 11:35:41;;;;;;;11.88;4.68;;;22.20;66.50;;;;;;5038621;28;20033;-70
2021/05/27 11:38:11;;;;;;;10.23;5.22;;;22.00;66.70;;;;;;5038642;28;20068;-71
2021/05/27 11:41:00;;;;;;;11.02;4.70;;;21.80;66.80;;;;;;5038581;28;20037;-71
2021/05/27 11:43:49;;;;;;;11.68;4.38;;;21.60;70.70;;;;;;5038911;28;20037;-70
2021/05/27 11:46:29;;;;;;;13.13;5.22;;;21.60;70.20;;;;;;5038341;28;20026;-70
2021/05/27 11:48:57;;;;;;;10.90;4.18;;;21.70;68.70;;;;;;5038463;28;20025;-70
2021/05/27 11:51:25;;;;;;;10.48;5.07;;;22.00;71.20;;;;;;5038372;28;20032;-72
2021/05/27 11:54:13;;;;;;;12.43;4.97;;;22.10;67.00;;;;;;5038705;28;20053;-72
2021/05/27 11:56:51;;;;;;;13.63;5.65;;;22.10;66.60;;;;;;5038583;28;20357;-71
2021/05/27 11:59:16;;;;;;;9.52;4.53;;;22.30;67.30;;;;;;5038538;28;20049;-70
2021/05/27 12:01:43;;;;;;;11.20;4.53;;;22.40;65.90;;;;;;5038444;28;20143;-70
2021/05/27 12:04:13;;;;;;;14.57;4.20;;;22.50;68.50;;;;;;5038100;28;20025;-70
2021/05/27 12:07:17;;;;;;;10.77;4.53;;;22.40;70.70;;;;;;5038105;28;20105;-71
2021/05/27 12:09:46;;;;;;;14.57;4.68;;;22.00;65.80;;;;;;5037732;28;20038;-71
2021/05/27 12:12:17;;;;;;;9.90;4.78;;;21.50;68.30;;;;;;5038277;28;20029;-72
2021/05/27 12:14:45;;;;;;;10.63;4.13;;;21.30;67.30;;;;;;5038234;28;20087;-72
2021/05/27 12:17:22;;;;;;;10.20;4.00;;;21.00;70.90;;;;;;5037939;28;20061;-72
2021/05/27 12:19:50;;;;;;;13.20;3.80;;;20.90;70.90;;;;;;5037862;28;20033;-72
2021/05/27 12:22:16;;;;;;;8.00;3.45;;;20.70;71.90;;;;;;5037944;28;20033;-72
2021/05/27 12:24:42;;;;;;;11.13;4.35;;;20.60;70.40;;;;;;5038061;28;20333;-72
2021/05/27 12:27:07;;;;;;;10.88;4.18;;;20.60;74.10;;;;;;5038006;28;20032;-72
2021/05/27 12:29:34;;;;;;;10.32;3.83;;;20.60;68.70;;;;;;5037966;28;20365;-72
2021/05/27 12:32:03;;;;;;;9.85;4.63;;;20.50;75.00;;;;;;5037555;28;20430;-72
2021/05/27 12:34:29;;;;;;;10.18;4.32;;;20.40;70.60;;;;;;5037495;28;20025;-72
2021/05/27 12:37:00;;;;;;;8.80;4.25;;;20.50;72.10;;;;;;5037500;28;20021;-72
2021/05/27 12:39:31;;;;;;;9.63;4.32;;;20.60;73.20;;;;;;5037519;28;20144;-72
2021/05/27 12:41:58;;;;;;;13.63;3.85;;;20.70;71.30;;;;;;5036767;28;20017;-72
2021/05/27 12:44:44;;;;;;;8.60;3.33;;;20.80;73.60;;;;;;5037689;28;20313;-70
2021/05/27 12:47:13;;;;;;;9.32;3.60;;;20.90;73.10;;;;;;5037685;28;20125;-71
2021/05/27 12:49:39;;;;;;;8.57;3.55;;;21.00;68.90;;;;;;5037340;28;20057;-70
2021/05/27 12:52:04;;;;;;;7.60;3.83;;;21.00;72.90;;;;;;5037572;28;20048;-70
2021/05/27 12:54:30;;;;;;;12.05;3.90;;;20.80;69.80;;;;;;5037532;28;20436;-70
2021/05/27 12:57:02;;;;;;;7.97;3.58;;;20.60;70.30;;;;;;5037229;28;20032;-70
2021/05/27 12:59:28;;;;;;;8.73;3.65;;;20.60;71.30;;;;;;5037425;28;20310;-70
2021/05/27 13:01:58;;;;;;;10.65;4.30;;;20.70;72.40;;;;;;5037005;28;20030;-70
2021/05/27 13:04:38;;;;;;;11.85;4.15;;;21.10;70.10;;;;;;5037034;28;20109;-70
2021/05/27 13:07:06;;;;;;;7.28;3.22;;;21.50;72.90;;;;;;5037071;28;20299;-70
2021/05/27 13:09:49;;;;;;;8.23;3.60;;;21.90;74.90;;;;;;5036994;28;20021;-71
2021/05/27 13:12:19;;;;;;;12.27;4.03;;;22.00;71.50;;;;;;5037237;28;20395;-71
2021/05/27 13:15:07;;;;;;;10.27;4.68;;;22.30;69.20;;;;;;5037027;28;20053;-71
2021/05/27 13:17:33;;;;;;;7.90;3.50;;;22.10;68.00;;;;;;5036762;28;20092;-71